Terminal Aerodrome Forecast
Issued by NWS

Home | Current Version | Previous Version | Text Only | Print | Product List | Glossary On
Versions: 1 2 3 4 5 6 7 8 9 10 11 12 13 14 15 16 17 18 19 20 21 22 23 24 25 26 27 28 29 30 31 32 33 34 35 36 37 38 39
000
FTUS45 KRIW 231100
TAFPNA
TAF
KPNA 231123Z 2312/2412 VRB04KT P6SM -SHRA VCFG SCT008 OVC016
      TEMPO 2312/2316 5SM -SHRA BR BKN007
     FM231700 VRB04KT P6SM VCSH SCT015 BKN030
     FM231900 VRB05KT P6SM VCTS SCT050CB BKN080
     FM240200 VRB05KT P6SM VCSH BKN080
     FM240600 34007KT P6SM SCT050 BKN100
      AMD LTD TO CLD VIS AND WIND=

USA.gov is the U.S. government's official web portal to all federal, state and local government web resources and services.